createdAt,value
2019-04-23T00:00:21.940Z,988.78
2019-04-23T00:02:25.152Z,988.75
2019-04-23T00:03:32.697Z,988.68
2019-04-23T00:04:25.150Z,988.74
2019-04-23T00:05:35.294Z,988.67
2019-04-23T00:06:28.788Z,988.62
2019-04-23T00:07:35.685Z,988.66
2019-04-23T00:08:29.412Z,988.65
2019-04-23T00:09:27.670Z,988.64
2019-04-23T00:11:47.873Z,988.61
2019-04-23T00:12:38.103Z,988.64
2019-04-23T00:13:29.837Z,988.62
2019-04-23T00:14:27.279Z,988.63
2019-04-23T00:15:28.905Z,988.58
2019-04-23T00:17:37.351Z,988.60
2019-04-23T00:18:30.132Z,988.57
2019-04-23T00:19:33.009Z,988.56
2019-04-23T00:20:30.167Z,988.49
2019-04-23T00:21:26.661Z,988.51
2019-04-23T00:22:28.946Z,988.52
2019-04-23T00:23:34.994Z,988.51
2019-04-23T00:24:52.837Z,988.47
2019-04-23T00:26:36.662Z,988.48
2019-04-23T00:29:41.466Z,988.46
2019-04-23T00:30:36.269Z,988.46
2019-04-23T00:33:31.436Z,988.45
2019-04-23T00:34:33.357Z,988.42
2019-04-23T00:35:33.926Z,988.45
2019-04-23T00:36:45.968Z,988.45
2019-04-23T00:37:31.547Z,988.44
2019-04-23T00:38:35.186Z,988.41
2019-04-23T00:39:38.966Z,988.40
2019-04-23T00:40:35.713Z,988.43
2019-04-23T00:41:36.271Z,988.45
2019-04-23T00:42:37.521Z,988.40
2019-04-23T00:43:34.252Z,988.39
2019-04-23T00:44:40.404Z,988.37
2019-04-23T00:45:39.888Z,988.37
2019-04-23T00:46:34.979Z,988.36
2019-04-23T00:47:48.650Z,988.34
2019-04-23T00:48:35.041Z,988.33
2019-04-23T00:49:35.630Z,988.34
2019-04-23T00:50:44.735Z,988.32
2019-04-23T00:51:36.652Z,988.31
2019-04-23T00:52:32.153Z,988.33
2019-04-23T00:53:32.633Z,988.30
2019-04-23T00:54:41.102Z,988.34
2019-04-23T00:55:35.154Z,988.27
2019-04-23T00:57:38.852Z,988.29
2019-04-23T00:59:42.221Z,988.30
2019-04-23T01:00:44.929Z,988.28
2019-04-23T01:01:42.921Z,988.21
2019-04-23T01:02:37.010Z,988.24
2019-04-23T01:03:30.771Z,988.21
2019-04-23T01:04:46.061Z,988.28
2019-04-23T01:05:35.217Z,988.30
2019-04-23T01:06:37.877Z,988.29
2019-04-23T01:07:38.546Z,988.25
2019-04-23T01:08:35.341Z,988.26
2019-04-23T01:09:39.328Z,988.33
2019-04-23T01:10:34.573Z,988.28
2019-04-23T01:11:31.750Z,988.28
2019-04-23T01:14:46.225Z,988.31
2019-04-23T01:15:41.134Z,988.30
2019-04-23T01:16:39.323Z,988.24
2019-04-23T01:18:46.901Z,988.23
2019-04-23T01:19:39.938Z,988.26
2019-04-23T01:20:44.508Z,988.18
2019-04-23T01:21:19.907Z,988.22
2019-04-23T01:22:19.105Z,988.20
2019-04-23T01:23:20.608Z,988.19
2019-04-23T01:24:23.977Z,988.13
2019-04-23T01:25:28.669Z,988.15
2019-04-23T01:26:42.124Z,988.14
2019-04-23T01:27:51.558Z,988.15
2019-04-23T01:28:49.727Z,988.07
2019-04-23T01:29:52.461Z,988.08
2019-04-23T01:30:52.796Z,988.11
2019-04-23T01:31:47.968Z,988.06
2019-04-23T01:32:46.651Z,988.06
2019-04-23T01:33:53.225Z,988.04
2019-04-23T01:34:51.617Z,988.00
2019-04-23T01:35:51.205Z,988.08
2019-04-23T01:36:44.728Z,987.90
2019-04-23T01:37:58.401Z,987.87
2019-04-23T01:38:54.745Z,987.94
2019-04-23T01:39:45.409Z,987.94
2019-04-23T01:41:00.378Z,987.88
2019-04-23T01:41:53.255Z,987.92
2019-04-23T01:42:44.231Z,987.86
2019-04-23T01:43:46.121Z,987.89
2019-04-23T01:44:50.877Z,987.83
2019-04-23T01:45:44.361Z,987.90
2019-04-23T01:46:54.180Z,987.90
2019-04-23T01:47:50.052Z,987.90
2019-04-23T01:48:56.773Z,987.92
2019-04-23T01:50:03.121Z,987.93
2019-04-23T01:51:54.901Z,987.85
2019-04-23T01:52:55.088Z,987.91
2019-04-23T01:53:51.510Z,987.91
2019-04-23T01:54:52.351Z,987.91
2019-04-23T01:55:52.688Z,987.92
2019-04-23T01:56:47.376Z,987.89
2019-04-23T01:58:57.110Z,987.87
2019-04-23T01:59:55.211Z,987.79
2019-04-23T02:00:53.223Z,987.83
2019-04-23T02:01:55.676Z,987.81
2019-04-23T02:02:56.147Z,987.83
2019-04-23T02:03:56.077Z,987.87
2019-04-23T02:05:05.979Z,987.78
2019-04-23T02:05:56.862Z,987.85
2019-04-23T02:06:55.929Z,987.71
2019-04-23T02:08:56.780Z,987.75
2019-04-23T02:11:59.169Z,987.68
2019-04-23T02:13:01.573Z,987.69
2019-04-23T02:13:55.413Z,987.67
2019-04-23T02:14:59.424Z,987.63
2019-04-23T02:15:53.990Z,987.64
2019-04-23T02:16:55.459Z,987.60
2019-04-23T02:17:58.715Z,987.68
2019-04-23T02:18:56.716Z,987.62
2019-04-23T02:20:01.975Z,987.53
2019-04-23T02:21:00.670Z,987.56
2019-04-23T02:21:59.653Z,987.55
2019-04-23T02:23:06.207Z,987.66
2019-04-23T02:23:55.579Z,987.53
2019-04-23T02:25:02.017Z,987.48
2019-04-23T02:25:54.034Z,987.47
2019-04-23T02:26:57.551Z,987.48
2019-04-23T02:29:03.241Z,987.45
2019-04-23T02:32:01.551Z,987.50
2019-04-23T02:36:01.953Z,987.41
2019-04-23T02:37:15.657Z,987.47
2019-04-23T02:39:02.815Z,987.31
2019-04-23T02:41:03.660Z,987.40
2019-04-23T02:42:19.155Z,987.38
2019-04-23T02:43:06.393Z,987.28
2019-04-23T02:45:02.184Z,987.31
2019-04-23T02:47:12.621Z,987.39
2019-04-23T02:49:11.999Z,987.34
2019-04-23T02:50:54.064Z,987.34
2019-04-23T02:53:20.803Z,987.38
2019-04-23T02:55:08.988Z,987.30
2019-04-23T02:56:12.317Z,987.31
2019-04-23T03:00:25.349Z,987.25
2019-04-23T03:02:24.401Z,987.19
2019-04-23T03:03:14.075Z,987.23
2019-04-23T03:04:10.361Z,987.20
2019-04-23T03:05:00.904Z,987.21
2019-04-23T03:06:05.887Z,987.23
2019-04-23T03:09:27.757Z,987.25
2019-04-23T03:10:08.171Z,987.22
2019-04-23T03:11:25.176Z,987.21
2019-04-23T03:13:21.673Z,987.17
2019-04-23T03:14:07.451Z,987.20
2019-04-23T03:18:28.569Z,987.19
2019-04-23T03:19:11.289Z,987.20
2019-04-23T03:20:15.117Z,987.18
2019-04-23T03:22:15.373Z,987.14
2019-04-23T03:23:27.576Z,987.17
2019-04-23T03:25:12.893Z,987.14
2019-04-23T03:26:25.795Z,987.17
2019-04-23T03:28:07.249Z,987.28
2019-04-23T03:33:06.960Z,987.22
2019-04-23T03:35:16.299Z,987.29
2019-04-23T03:36:10.715Z,987.20
2019-04-23T03:38:23.695Z,987.23
2019-04-23T03:39:05.751Z,987.23
2019-04-23T03:40:21.480Z,987.19
2019-04-23T03:41:32.019Z,987.22
2019-04-23T03:42:17.293Z,987.20
2019-04-23T03:43:14.522Z,987.22
2019-04-23T03:44:18.577Z,987.23
2019-04-23T03:45:44.502Z,987.20
2019-04-23T03:47:20.657Z,987.18
2019-04-23T03:48:26.217Z,987.20
2019-04-23T03:49:30.010Z,987.08
2019-04-23T03:50:25.240Z,987.22
2019-04-23T03:51:18.606Z,987.19
2019-04-23T03:52:20.750Z,987.18
2019-04-23T03:53:29.888Z,987.15
2019-04-23T03:55:18.546Z,987.22
2019-04-23T03:56:24.085Z,987.12
2019-04-23T03:57:18.250Z,987.09
2019-04-23T03:58:21.204Z,987.14
2019-04-23T03:59:26.555Z,987.11
2019-04-23T04:00:28.987Z,987.14
2019-04-23T04:01:21.625Z,987.13
2019-04-23T04:02:33.386Z,987.14
2019-04-23T04:03:42.184Z,987.12
2019-04-23T04:05:22.321Z,987.11
2019-04-23T04:06:24.369Z,987.10
2019-04-23T04:07:28.433Z,987.11
2019-04-23T04:08:20.273Z,987.12
2019-04-23T04:09:32.293Z,987.11
2019-04-23T04:10:16.032Z,987.09
2019-04-23T04:11:25.531Z,987.07
2019-04-23T04:12:30.050Z,987.16
2019-04-23T04:14:32.078Z,987.08
2019-04-23T04:15:43.578Z,987.13
2019-04-23T04:16:21.846Z,987.08
2019-04-23T04:17:19.676Z,987.12
2019-04-23T04:18:33.002Z,987.09
2019-04-23T04:20:32.625Z,987.11
2019-04-23T04:21:27.636Z,987.12
2019-04-23T04:22:29.333Z,987.06
2019-04-23T04:26:32.712Z,987.09
2019-04-23T04:27:24.557Z,987.08
2019-04-23T04:29:30.096Z,987.11
2019-04-23T04:30:29.581Z,987.11
2019-04-23T04:31:40.055Z,987.03
2019-04-23T04:32:24.667Z,987.02
2019-04-23T04:34:58.437Z,987.05
2019-04-23T04:35:27.297Z,987.07
2019-04-23T04:36:45.612Z,987.07
2019-04-23T04:39:30.381Z,987.08
2019-04-23T04:40:29.302Z,987.01
2019-04-23T04:45:47.285Z,987.04
2019-04-23T04:47:42.536Z,987.07
2019-04-23T04:49:36.892Z,986.98
2019-04-23T04:50:26.809Z,986.97
2019-04-23T04:53:47.021Z,986.97
2019-04-23T04:55:31.603Z,987.02
2019-04-23T04:56:29.460Z,987.02
2019-04-23T04:58:43.154Z,986.92
2019-04-23T05:00:58.298Z,986.86
2019-04-23T05:02:53.914Z,986.86
2019-04-23T05:03:36.159Z,986.92
2019-04-23T05:04:37.942Z,986.86
2019-04-23T05:06:01.328Z,986.84
2019-04-23T05:06:37.901Z,986.85
2019-04-23T05:08:39.694Z,986.85
2019-04-23T05:09:43.987Z,986.85
2019-04-23T05:12:27.590Z,986.90
2019-04-23T05:13:41.278Z,986.87
2019-04-23T05:14:33.703Z,986.85
2019-04-23T05:15:29.756Z,986.89
2019-04-23T05:16:27.509Z,986.88
2019-04-23T05:17:32.755Z,986.86
2019-04-23T05:18:31.099Z,986.87
2019-04-23T05:21:43.599Z,986.82
2019-04-23T05:22:30.879Z,986.87
2019-04-23T05:23:33.834Z,986.85
2019-04-23T05:24:28.748Z,986.88
2019-04-23T05:25:25.465Z,986.82
2019-04-23T05:26:27.035Z,986.88
2019-04-23T05:27:34.540Z,986.80
2019-04-23T05:28:31.599Z,986.79
2019-04-23T05:29:34.358Z,986.82
2019-04-23T05:30:34.913Z,986.80
2019-04-23T05:32:27.085Z,986.73
2019-04-23T05:33:28.914Z,986.71
2019-04-23T05:34:27.574Z,986.69
2019-04-23T05:35:56.167Z,986.72
2019-04-23T05:36:34.405Z,986.73
2019-04-23T05:37:42.306Z,986.66
2019-04-23T05:38:54.251Z,986.59
2019-04-23T05:40:40.357Z,986.66
2019-04-23T05:42:32.690Z,986.57
2019-04-23T05:43:38.102Z,986.58
2019-04-23T05:45:34.483Z,986.59
2019-04-23T05:46:33.781Z,986.51
2019-04-23T05:47:50.640Z,986.56
2019-04-23T05:48:34.824Z,986.50
2019-04-23T05:49:33.078Z,986.53
2019-04-23T05:50:44.436Z,986.45
2019-04-23T05:51:51.022Z,986.46
2019-04-23T05:52:36.716Z,986.45
2019-04-23T05:53:40.762Z,986.47
2019-04-23T05:54:37.061Z,986.42
2019-04-23T05:55:38.851Z,986.43
2019-04-23T05:56:32.377Z,986.43
2019-04-23T05:57:34.646Z,986.44
2019-04-23T05:58:38.417Z,986.40
2019-04-23T05:59:48.483Z,986.41
2019-04-23T06:00:41.599Z,986.45
2019-04-23T06:02:45.310Z,986.42
2019-04-23T06:03:42.062Z,986.39
2019-04-23T06:04:35.875Z,986.38
2019-04-23T06:05:41.541Z,986.37
2019-04-23T06:06:47.147Z,986.38
2019-04-23T06:08:39.124Z,986.37
2019-04-23T06:09:53.524Z,986.34
2019-04-23T06:10:40.743Z,986.32
2019-04-23T06:11:47.355Z,986.31
2019-04-23T06:12:37.063Z,986.30
2019-04-23T06:13:44.593Z,986.31
2019-04-23T06:14:43.768Z,986.27
2019-04-23T06:15:36.879Z,986.28
2019-04-23T06:16:41.835Z,986.26
2019-04-23T06:17:39.252Z,986.26
2019-04-23T06:18:44.726Z,986.27
2019-04-23T06:19:36.810Z,986.31
2019-04-23T06:20:45.409Z,986.21
2019-04-23T06:21:56.154Z,986.24
2019-04-23T06:22:45.972Z,986.19
2019-04-23T06:23:43.886Z,986.16
2019-04-23T06:24:41.510Z,986.12
2019-04-23T06:25:57.175Z,986.10
2019-04-23T06:27:39.728Z,986.13
2019-04-23T06:28:40.583Z,986.10
2019-04-23T06:29:45.021Z,986.06
2019-04-23T06:30:48.954Z,986.10
2019-04-23T06:31:44.081Z,986.07
2019-04-23T06:32:37.798Z,986.02
2019-04-23T06:33:41.305Z,985.97
2019-04-23T06:34:50.294Z,985.98
2019-04-23T06:35:45.204Z,986.09
2019-04-23T06:36:49.191Z,985.98
2019-04-23T06:38:06.290Z,985.92
2019-04-23T06:38:54.484Z,985.88
2019-04-23T06:39:41.528Z,985.89
2019-04-23T06:40:43.529Z,985.99
2019-04-23T06:41:44.527Z,985.90
2019-04-23T06:42:50.221Z,985.89
2019-04-23T06:43:49.697Z,985.98
2019-04-23T06:44:45.490Z,985.98
2019-04-23T06:46:01.343Z,985.95
2019-04-23T06:46:50.258Z,985.88
2019-04-23T06:47:42.914Z,985.87
2019-04-23T06:48:40.834Z,985.90
2019-04-23T06:49:44.221Z,985.87
2019-04-23T06:50:50.865Z,985.87
2019-04-23T06:51:53.311Z,985.88
2019-04-23T06:52:43.820Z,985.85
2019-04-23T06:53:43.783Z,985.87
2019-04-23T06:54:51.404Z,985.84
2019-04-23T06:55:49.202Z,985.83
2019-04-23T06:56:53.696Z,985.88
2019-04-23T06:57:48.157Z,985.81
2019-04-23T06:58:43.971Z,985.82
2019-04-23T06:59:59.187Z,985.78
2019-04-23T07:00:48.151Z,985.81
2019-04-23T07:01:56.293Z,985.72
2019-04-23T07:02:44.404Z,985.69
2019-04-23T07:03:55.743Z,985.70
2019-04-23T07:05:01.767Z,985.71
2019-04-23T07:05:53.477Z,985.63
2019-04-23T07:06:56.601Z,985.70
2019-04-23T07:08:02.765Z,985.72
2019-04-23T07:09:07.155Z,985.61
2019-04-23T07:09:50.520Z,985.65
2019-04-23T07:10:49.108Z,985.61
2019-04-23T07:12:52.292Z,985.60
2019-04-23T07:15:02.698Z,985.55
2019-04-23T07:15:53.363Z,985.52
2019-04-23T07:16:51.241Z,985.56
2019-04-23T07:17:47.766Z,985.58
2019-04-23T07:19:48.455Z,985.53
2019-04-23T07:20:50.536Z,985.51
2019-04-23T07:21:52.547Z,985.46
2019-04-23T07:23:03.504Z,985.50
2019-04-23T07:24:00.643Z,985.48
2019-04-23T07:24:52.758Z,985.48
2019-04-23T07:26:02.487Z,985.32
2019-04-23T07:26:45.006Z,985.43
2019-04-23T07:27:47.623Z,985.43
2019-04-23T07:28:55.607Z,985.40
2019-04-23T07:29:58.117Z,985.38
2019-04-23T07:31:00.446Z,985.27
2019-04-23T07:31:54.698Z,985.30
2019-04-23T07:33:57.589Z,985.28
2019-04-23T07:35:04.520Z,985.29
2019-04-23T07:35:51.790Z,985.24
2019-04-23T07:36:53.786Z,985.21
2019-04-23T07:39:01.577Z,985.16
2019-04-23T07:40:10.978Z,985.19
2019-04-23T07:41:00.166Z,985.18
2019-04-23T07:42:03.504Z,985.20
2019-04-23T07:42:58.342Z,985.08
2019-04-23T07:44:08.593Z,985.13
2019-04-23T07:44:59.438Z,985.11
2019-04-23T07:46:02.220Z,985.09
2019-04-23T07:47:11.736Z,985.09
2019-04-23T07:48:08.079Z,985.14
2019-04-23T07:48:56.386Z,985.04
2019-04-23T07:50:11.382Z,985.05
2019-04-23T07:50:55.039Z,985.06
2019-04-23T07:52:06.632Z,985.00
2019-04-23T07:53:05.545Z,985.04
2019-04-23T07:54:01.492Z,984.97
2019-04-23T07:55:02.542Z,985.03
2019-04-23T07:56:02.528Z,985.02
2019-04-23T07:57:09.078Z,985.07
2019-04-23T07:58:06.548Z,985.01
2019-04-23T07:59:07.427Z,984.96
2019-04-23T08:00:00.501Z,985.05
2019-04-23T08:02:03.462Z,984.93
2019-04-23T08:03:14.306Z,984.93
2019-04-23T08:04:04.609Z,984.87
2019-04-23T08:05:07.706Z,984.85
2019-04-23T08:05:55.340Z,984.92
2019-04-23T08:07:00.425Z,984.89
2019-04-23T08:08:03.879Z,984.91
2019-04-23T08:09:03.644Z,984.82
2019-04-23T08:10:02.402Z,984.81
2019-04-23T08:11:25.883Z,984.76
2019-04-23T08:12:03.054Z,984.78
2019-04-23T08:13:08.534Z,984.76
2019-04-23T08:16:08.850Z,984.65
2019-04-23T08:16:58.247Z,984.67
2019-04-23T08:18:07.098Z,984.61
2019-04-23T08:18:57.684Z,984.56
2019-04-23T08:21:02.473Z,984.57
2019-04-23T08:22:13.901Z,984.52
2019-04-23T08:23:03.901Z,984.57
2019-04-23T08:25:07.868Z,984.59
2019-04-23T08:26:15.588Z,984.50
2019-04-23T08:27:08.222Z,984.50
2019-04-23T08:28:08.015Z,984.47
2019-04-23T08:30:00.672Z,984.45
2019-04-23T08:31:09.858Z,984.41
2019-04-23T08:32:07.645Z,984.46
2019-04-23T08:33:04.256Z,984.37
2019-04-23T08:34:20.434Z,984.35
2019-04-23T08:36:12.188Z,984.28
2019-04-23T08:37:08.936Z,984.28
2019-04-23T08:38:18.589Z,984.34
2019-04-23T08:39:10.293Z,984.28
2019-04-23T08:40:11.999Z,984.24
2019-04-23T08:41:21.455Z,984.20
2019-04-23T08:42:27.065Z,984.19
2019-04-23T08:43:25.103Z,984.19
2019-04-23T08:44:18.293Z,984.16
2019-04-23T08:45:18.569Z,984.08
2019-04-23T08:46:15.293Z,984.15
2019-04-23T08:47:12.731Z,984.16
2019-04-23T08:49:13.678Z,984.04
2019-04-23T08:50:04.382Z,984.02
2019-04-23T08:51:23.754Z,984.01
2019-04-23T08:52:11.631Z,983.99
2019-04-23T08:53:23.326Z,983.95
2019-04-23T08:54:15.176Z,984.06
2019-04-23T08:55:11.146Z,984.00
2019-04-23T08:56:11.986Z,984.06
2019-04-23T08:58:14.384Z,984.06
2019-04-23T08:59:20.528Z,984.00
2019-04-23T09:00:10.766Z,984.12
2019-04-23T09:01:10.679Z,984.08
2019-04-23T09:02:22.888Z,984.14
2019-04-23T09:03:18.855Z,984.08
2019-04-23T09:04:09.283Z,984.13
2019-04-23T09:05:48.322Z,984.12
2019-04-23T09:06:10.770Z,984.09
2019-04-23T09:07:17.875Z,984.14
2019-04-23T09:08:15.573Z,984.09
2019-04-23T09:09:20.082Z,984.11
2019-04-23T09:11:30.887Z,984.13
2019-04-23T09:12:22.031Z,984.07
2019-04-23T09:13:40.165Z,984.09
2019-04-23T09:14:07.274Z,984.06
2019-04-23T09:16:13.646Z,984.03
2019-04-23T09:17:21.211Z,984.04
2019-04-23T09:18:15.889Z,983.91
2019-04-23T09:19:32.286Z,983.98
2019-04-23T09:20:27.703Z,983.94
2019-04-23T09:21:14.160Z,984.02
2019-04-23T09:22:22.001Z,983.92
2019-04-23T09:23:22.341Z,983.99
2019-04-23T09:24:13.256Z,983.96
2019-04-23T09:25:32.119Z,983.98
2019-04-23T09:27:23.248Z,983.93
2019-04-23T09:28:29.689Z,983.88
2019-04-23T09:29:19.139Z,983.74
2019-04-23T09:30:20.933Z,983.78
2019-04-23T09:31:31.589Z,983.76
2019-04-23T09:33:23.961Z,983.77
2019-04-23T09:34:20.806Z,983.77
2019-04-23T09:35:20.719Z,983.80
2019-04-23T09:36:22.471Z,983.72
2019-04-23T09:37:26.830Z,983.71
2019-04-23T09:38:19.882Z,983.69
2019-04-23T09:39:20.578Z,983.64
2019-04-23T09:40:32.111Z,983.66
2019-04-23T09:42:29.590Z,983.63
2019-04-23T09:43:22.851Z,983.57
2019-04-23T09:44:41.076Z,983.51
2019-04-23T09:45:23.382Z,983.56
2019-04-23T09:46:25.762Z,983.59
2019-04-23T09:47:24.527Z,983.55
2019-04-23T09:48:18.113Z,983.52
2019-04-23T09:50:26.350Z,983.43
2019-04-23T09:51:27.781Z,983.46
2019-04-23T09:52:27.598Z,983.44
2019-04-23T09:53:29.124Z,983.37
2019-04-23T09:54:23.650Z,983.35
2019-04-23T09:55:27.462Z,983.32
2019-04-23T09:56:23.631Z,983.34
2019-04-23T09:57:17.091Z,983.27
2019-04-23T09:58:15.135Z,983.34
2019-04-23T10:00:38.052Z,983.27
2019-04-23T10:01:32.779Z,983.24
2019-04-23T10:02:20.243Z,983.25
2019-04-23T10:03:09.103Z,983.26
2019-04-23T10:04:13.508Z,983.09
2019-04-23T10:05:11.078Z,983.26
2019-04-23T10:06:06.326Z,983.23
2019-04-23T10:07:12.545Z,983.15
2019-04-23T10:08:05.072Z,983.18
2019-04-23T10:09:04.040Z,983.17
2019-04-23T10:09:59.555Z,983.17
2019-04-23T10:10:57.513Z,983.08
2019-04-23T10:11:58.758Z,982.94
2019-04-23T10:12:58.115Z,982.99
2019-04-23T10:13:58.810Z,983.00
2019-04-23T10:15:09.446Z,982.91
2019-04-23T10:15:59.972Z,983.04
2019-04-23T10:16:58.101Z,983.07
2019-04-23T10:18:00.358Z,983.10
2019-04-23T10:19:01.030Z,983.04
2019-04-23T10:20:00.624Z,983.02
2019-04-23T10:20:59.531Z,983.02
2019-04-23T10:21:59.777Z,983.04
2019-04-23T10:23:00.168Z,982.98
2019-04-23T10:24:01.433Z,983.04
2019-04-23T10:25:01.198Z,983.05
2019-04-23T10:25:59.439Z,983.04
2019-04-23T10:27:00.000Z,982.99
2019-04-23T10:28:06.540Z,983.03
2019-04-23T10:29:02.393Z,982.99
2019-04-23T10:30:01.656Z,982.91
2019-04-23T10:31:02.734Z,982.94
2019-04-23T10:32:02.081Z,982.99
2019-04-23T10:33:01.400Z,982.89
2019-04-23T10:34:02.156Z,982.96
2019-04-23T10:35:15.132Z,982.97
2019-04-23T10:36:09.440Z,982.93
2019-04-23T10:37:05.054Z,982.89
2019-04-23T10:38:05.314Z,982.86
2019-04-23T10:39:14.199Z,982.92
2019-04-23T10:40:07.942Z,982.89
2019-04-23T10:41:04.537Z,982.79
2019-04-23T10:42:03.387Z,982.75
2019-04-23T10:43:05.391Z,982.83
2019-04-23T10:44:05.008Z,982.77
2019-04-23T10:45:20.736Z,982.74
2019-04-23T10:46:26.848Z,982.68
2019-04-23T10:47:32.323Z,982.60
2019-04-23T10:48:38.795Z,982.74
2019-04-23T10:50:44.468Z,982.79
2019-04-23T10:52:32.115Z,982.71
2019-04-23T10:53:37.922Z,982.66
2019-04-23T10:55:42.171Z,982.65
2019-04-23T10:56:42.655Z,982.64
2019-04-23T10:57:44.103Z,982.55
2019-04-23T10:58:35.296Z,982.72
2019-04-23T10:59:40.352Z,982.66
2019-04-23T11:00:37.522Z,982.69
2019-04-23T11:01:39.140Z,982.66
2019-04-23T11:03:48.994Z,982.58
2019-04-23T11:04:49.153Z,982.53
2019-04-23T11:05:52.239Z,982.52
2019-04-23T11:06:41.040Z,982.53
2019-04-23T11:08:38.615Z,982.52
2019-04-23T11:09:50.032Z,982.49
2019-04-23T11:10:40.927Z,982.49
2019-04-23T11:11:36.127Z,982.42
2019-04-23T11:12:42.231Z,982.44
2019-04-23T11:13:37.849Z,982.50
2019-04-23T11:14:46.212Z,982.48
2019-04-23T11:17:47.712Z,982.46
2019-04-23T11:18:53.578Z,982.45
2019-04-23T11:20:45.796Z,982.40
2019-04-23T11:21:43.076Z,982.31
2019-04-23T11:23:42.028Z,982.38
2019-04-23T11:25:36.772Z,982.36
2019-04-23T11:26:42.675Z,982.37
2019-04-23T11:28:02.818Z,982.40
2019-04-23T11:28:38.462Z,982.42
2019-04-23T11:29:48.609Z,982.26
2019-04-23T11:33:42.951Z,982.29
2019-04-23T11:36:01.861Z,982.34
2019-04-23T11:39:45.072Z,982.30
2019-04-23T11:40:37.080Z,982.26
2019-04-23T11:41:53.938Z,982.27
2019-04-23T11:42:42.650Z,982.31
2019-04-23T11:44:02.347Z,982.28
2019-04-23T11:44:49.499Z,982.33
2019-04-23T11:45:57.569Z,982.32
2019-04-23T11:46:57.446Z,982.26
2019-04-23T11:48:26.388Z,982.27
2019-04-23T11:48:59.496Z,982.27
2019-04-23T11:50:01.540Z,982.29
2019-04-23T11:51:20.507Z,982.27
2019-04-23T11:51:57.846Z,982.32
2019-04-23T11:52:48.588Z,982.40
2019-04-23T11:53:52.412Z,982.33
2019-04-23T11:54:45.365Z,982.22
2019-04-23T11:55:55.629Z,982.31
2019-04-23T11:57:14.119Z,982.31
2019-04-23T11:58:00.697Z,982.23
2019-04-23T11:58:46.097Z,982.27
2019-04-23T12:01:04.564Z,982.22
2019-04-23T12:01:52.807Z,982.23
2019-04-23T12:03:57.097Z,982.23
2019-04-23T12:05:00.921Z,982.25
2019-04-23T12:05:50.119Z,982.19
2019-04-23T12:06:52.447Z,982.15
2019-04-23T12:07:50.270Z,982.20
2019-04-23T12:08:51.053Z,982.18
2019-04-23T12:11:00.453Z,982.19
2019-04-23T12:12:46.001Z,982.12
2019-04-23T12:13:51.494Z,982.06
2019-04-23T12:14:47.215Z,982.13
2019-04-23T12:15:53.283Z,982.14
2019-04-23T12:17:05.551Z,982.15
2019-04-23T12:19:14.346Z,982.05
2019-04-23T12:19:55.723Z,982.12
2019-04-23T12:20:48.787Z,982.09
2019-04-23T12:23:59.496Z,982.09
2019-04-23T12:25:58.625Z,981.92
2019-04-23T12:27:42.175Z,981.97
2019-04-23T12:29:54.571Z,981.99
2019-04-23T12:30:50.593Z,982.05
2019-04-23T12:31:56.888Z,982.00
2019-04-23T12:33:11.594Z,981.95
2019-04-23T12:33:57.539Z,982.00
2019-04-23T12:35:50.395Z,982.03
2019-04-23T12:36:54.280Z,981.93
2019-04-23T12:37:56.234Z,981.97
2019-04-23T12:39:00.984Z,981.94
2019-04-23T12:40:03.040Z,981.94
2019-04-23T12:40:56.414Z,981.89
2019-04-23T12:42:01.981Z,981.81
2019-04-23T12:43:57.622Z,981.69
2019-04-23T12:45:06.937Z,981.64
2019-04-23T12:45:52.010Z,981.80
2019-04-23T12:47:05.615Z,981.73
2019-04-23T12:48:10.536Z,981.90
2019-04-23T12:49:06.971Z,981.87
2019-04-23T12:50:18.868Z,981.80
2019-04-23T12:51:18.256Z,981.82
2019-04-23T12:54:02.738Z,981.72
2019-04-23T12:55:08.524Z,981.75
2019-04-23T12:56:21.233Z,981.71
2019-04-23T12:57:09.164Z,981.79
2019-04-23T12:58:03.527Z,981.76
2019-04-23T12:58:56.360Z,981.78
2019-04-23T13:01:05.581Z,981.72
2019-04-23T13:02:08.135Z,981.71
2019-04-23T13:02:55.459Z,981.67
2019-04-23T13:03:50.589Z,981.68
2019-04-23T13:05:05.945Z,981.68
2019-04-23T13:05:55.487Z,981.63
2019-04-23T13:07:00.183Z,981.51
2019-04-23T13:07:58.512Z,981.56
2019-04-23T13:09:01.177Z,981.57
2019-04-23T13:09:58.158Z,981.63
2019-04-23T13:11:10.175Z,981.55
2019-04-23T13:12:12.570Z,981.53
2019-04-23T13:13:11.706Z,981.53
2019-04-23T13:14:08.569Z,981.50
2019-04-23T13:15:03.250Z,981.50
2019-04-23T13:16:05.913Z,981.49
2019-04-23T13:17:14.190Z,981.47
2019-04-23T13:18:04.759Z,981.41
2019-04-23T13:19:19.030Z,981.40
2019-04-23T13:21:15.760Z,981.50
2019-04-23T13:22:11.992Z,981.48
2019-04-23T13:24:04.331Z,981.47
2019-04-23T13:25:02.022Z,981.41
2019-04-23T13:25:59.656Z,981.39
2019-04-23T13:27:15.395Z,981.40
2019-04-23T13:28:08.468Z,981.44
2019-04-23T13:29:11.862Z,981.37
2019-04-23T13:30:14.398Z,981.34
2019-04-23T13:31:08.588Z,981.29
2019-04-23T13:32:05.436Z,981.29
2019-04-23T13:33:12.582Z,981.26
2019-04-23T13:34:08.990Z,981.23
2019-04-23T13:35:23.065Z,981.21
2019-04-23T13:36:29.023Z,981.28
2019-04-23T13:37:16.276Z,981.27
2019-04-23T13:39:12.010Z,981.21
2019-04-23T13:40:13.034Z,981.22
2019-04-23T13:41:21.734Z,981.23
2019-04-23T13:42:19.826Z,981.23
2019-04-23T13:43:14.914Z,981.25
2019-04-23T13:44:00.268Z,981.17
2019-04-23T13:45:17.550Z,981.17
2019-04-23T13:47:21.952Z,981.17
2019-04-23T13:49:10.907Z,981.18
2019-04-23T13:50:24.862Z,981.22
2019-04-23T13:51:14.213Z,981.26
2019-04-23T13:52:37.844Z,981.22
2019-04-23T13:53:20.979Z,981.26
2019-04-23T13:54:24.170Z,981.25
2019-04-23T13:56:09.156Z,981.30
2019-04-23T13:57:44.053Z,981.23
2019-04-23T13:58:14.683Z,981.31
2019-04-23T13:59:16.236Z,981.26
2019-04-23T14:00:20.902Z,981.26
2019-04-23T14:02:24.040Z,981.20
2019-04-23T14:03:13.951Z,981.14
2019-04-23T14:04:14.327Z,981.15
2019-04-23T14:05:12.699Z,981.10
2019-04-23T14:07:17.445Z,981.16
2019-04-23T14:08:28.499Z,981.15
2019-04-23T14:09:21.148Z,981.13
2019-04-23T14:10:18.223Z,981.08
2019-04-23T14:12:17.853Z,981.07
2019-04-23T14:13:42.360Z,981.01
2019-04-23T14:14:25.029Z,980.96
2019-04-23T14:15:22.690Z,980.95
2019-04-23T14:17:27.592Z,980.95
2019-04-23T14:19:28.336Z,980.85
2019-04-23T14:20:13.786Z,980.87
2019-04-23T14:21:25.217Z,980.81
2019-04-23T14:22:48.770Z,980.84
2019-04-23T14:23:27.635Z,980.87
2019-04-23T14:24:40.754Z,980.93
2019-04-23T14:26:23.246Z,980.84
2019-04-23T14:27:20.164Z,980.76
2019-04-23T14:28:21.899Z,980.88
2019-04-23T14:29:21.551Z,980.95
2019-04-23T14:30:29.896Z,980.93
2019-04-23T14:31:31.809Z,980.85
2019-04-23T14:32:22.273Z,980.90
2019-04-23T14:33:26.691Z,980.90
2019-04-23T14:34:15.919Z,980.97
2019-04-23T14:36:19.161Z,980.85
2019-04-23T14:37:17.218Z,980.87
2019-04-23T14:38:22.314Z,980.87
2019-04-23T14:39:26.615Z,980.85
2019-04-23T14:40:26.615Z,980.85
2019-04-23T14:42:30.935Z,980.91
2019-04-23T14:43:38.476Z,980.84
2019-04-23T14:46:34.645Z,980.73
2019-04-23T14:47:38.143Z,980.72
2019-04-23T14:48:38.622Z,980.70
2019-04-23T14:49:24.624Z,980.66
2019-04-23T14:51:34.216Z,980.75
2019-04-23T14:53:24.398Z,980.75
2019-04-23T14:54:35.871Z,980.81
2019-04-23T14:56:39.571Z,980.86
2019-04-23T14:59:16.405Z,980.78
2019-04-23T15:00:30.659Z,980.77
2019-04-23T15:02:25.702Z,980.70
2019-04-23T15:03:32.908Z,980.66
2019-04-23T15:04:27.214Z,980.70
2019-04-23T15:05:29.766Z,980.76
2019-04-23T15:06:43.696Z,980.70
2019-04-23T15:07:28.283Z,980.70
2019-04-23T15:08:30.354Z,980.71
2019-04-23T15:09:28.072Z,980.65
2019-04-23T15:10:34.764Z,980.76
2019-04-23T15:12:30.544Z,980.76
2019-04-23T15:13:28.265Z,980.72
2019-04-23T15:14:36.166Z,980.68